Terminal Aerodrome Forecast
Issued by NWS Pueblo, CO

Home | Current Version | Previous Version | Text Only | Print | Product List | Glossary On
Versions: 1 2 3 4 5 6 7 8 9 10 11 12 13 14 15 16 17 18 19 20 21 22 23 24 25 26 27 28 29 30 31 32
000
FTUS45 KPUB 011135
TAFCOS
TAF
KCOS 011135Z 0112/0212 VRB06KT P6SM FEW080 SCT120 SCT150
     FM011500 19007KT P6SM FEW080 SCT150
     FM012100 21009KT P6SM VCTS SCT070CB BKN110
     FM020000 35008KT P6SM VCTS SCT070CB BKN110
     FM020600 VRB06KT P6SM FEW070 SCT090 BKN110=

USA.gov is the U.S. government's official web portal to all federal, state and local government web resources and services.